• Join FlightAware (Why Join?)
  • Login
  • US Flag 
03:13AM EDT


 

Airport Tracker/Info


-or-


 

Live Flight TrackerFlight Track Log ✈ N830QS ✈ 11-Oct-2013 ✈ KTEB - KUNV

Flight Track Log - Related Links

Times and Time Zones

All times are in EDT time to prevent confusion due to time zone crossing. See the N830QS flight status page for this flight to view local times or setup timezone preferences in your user account.

Time Position Orientation Groundspeed Altitude Reporting Facility
EDT Latitude Longitude Course Direction KTS MPH feet Rate Location/Type
09:52AM 40.9000 -74.0333 288° West 193 222 2,000  Level New York TRACON
09:53AM 40.9167 -74.1000 288° West 240 276 2,600 1,080 Climbing New York TRACON
09:54AM 40.9167 -74.1833 270° West 236 272 4,200 2,400 Climbing New York TRACON
09:55AM 40.9167 -74.2833 270° West 274 315 7,400 1,860 Climbing New York TRACON
09:56AM 40.9167 -74.4000 270° West 296 341 8,000 1,320 Climbing New York TRACON
09:57AM 40.8972 -74.5456 260° West 316 364 10,600 2,460 Climbing New York Center
09:58AM 40.8808 -74.6628 260° West 311 358 14,000 3,000 Climbing New York Center
09:59AM 40.8833 -74.7781 272° West 318 366 16,600 1,980 Climbing New York Center
10:00AM 40.8917 -74.8939 275° West 338 389 18,000 660 Climbing New York Center
10:01AM 40.8700 -75.0325 258° West 371 427 18,000  Level New York Center
10:02AM 40.8478 -75.1875 259° West 396 456 18,000  Level New York Center
10:03AM 40.8236 -75.3286 257° West 396 456 18,000  Level New York Center
10:04AM 40.8014 -75.4725 259° West 396 456 18,000  Level New York Center
10:05AM 40.7769 -75.6133 257° West 396 456 18,000  Level New York Center
10:06AM 40.7528 -75.7403 256° West 401 461 18,000  Level New York Center
10:07AM 40.7306 -75.8756 258° West 396 456 18,000  Level New York Center
10:08AM 40.7425 -76.0272 276° West 379 436 18,000  Level New York Center
10:09AM 40.7553 -76.1625 277° West 388 447 18,000  Level New York Center
10:10AM 40.7714 -76.3061 278° West 393 452 18,000 -180 Level New York Center
10:11AM 40.7842 -76.4333 278° West 393 452 17,700 -1,080 Descending New York Center
10:12AM 40.7981 -76.5769 277° West 375 432 15,900 -1,560 Descending New York Center
10:13AM 40.8278 -76.6919 289° West 365 420 14,600 -1,440 Descending New York Center
10:14AM 40.8631 -76.8186 290° West 371 427 13,100 -1,560 Descending New York Center
10:15AM 40.8997 -76.9592 289° West 371 427 11,500 2,400 Descending New York Center
10:16AM 40.9261 -77.0881 285° West 371 427 18,000 -1,500 Climbing New York Center
10:17AM 40.9425 -77.2131 280° West 364 419 8,500 -5,820 Descending New York Center
10:18AM 40.9586 -77.3328 280° West 351 404 6,400 -1,860 Descending New York Center
10:19AM 40.9717 -77.4386 279° West 324 373 4,800 -1,140 Descending New York Center
10:20AM 40.9847 -77.5389 280° West 298 343 4,200 -300 Descending New York Center
10:21AM 40.9761 -77.6150 262° West 252 290 4,200  Level New York Center
10:22AM 40.9497 -77.6756 240° Southwest 202 232 4,200 -540 Level New York Center
10:23AM 40.9172 -77.7328 233° Southwest 202 232 3,200 -900 Descending New York Center
10:24AM 40.8894 -77.7792 232° Southwest 191 220 2,400 -600 Descending New York Center
10:25AM 40.8633 -77.8314 237° Southwest 185 213 2,000 -420 Descending New York Center
10:27AM 40.8493 -77.8487 270° West  Level Estimated